sensor_id;sensor_type;location;lat;lon;timestamp;P1;durP1;ratioP1;P2;durP2;ratioP2
54835;SDS011;43486;43.574;1.476;2023-05-14T00:01:35;5.85;;;2.17;;
54835;SDS011;43486;43.574;1.476;2023-05-14T00:04:01;5.13;;;2.47;;
54835;SDS011;43486;43.574;1.476;2023-05-14T00:06:27;5.15;;;2.40;;
54835;SDS011;43486;43.574;1.476;2023-05-14T00:08:53;8.15;;;3.13;;
54835;SDS011;43486;43.574;1.476;2023-05-14T00:11:18;3.78;;;1.98;;
54835;SDS011;43486;43.574;1.476;2023-05-14T00:13:43;5.00;;;2.30;;
54835;SDS011;43486;43.574;1.476;2023-05-14T00:16:09;4.43;;;2.22;;
54835;SDS011;43486;43.574;1.476;2023-05-14T00:18:35;4.75;;;2.22;;
54835;SDS011;43486;43.574;1.476;2023-05-14T00:21:00;3.47;;;1.85;;
54835;SDS011;43486;43.574;1.476;2023-05-14T00:23:26;4.47;;;1.77;;
54835;SDS011;43486;43.574;1.476;2023-05-14T00:25:51;3.50;;;1.90;;
54835;SDS011;43486;43.574;1.476;2023-05-14T00:28:17;3.35;;;1.95;;
54835;SDS011;43486;43.574;1.476;2023-05-14T00:30:42;4.00;;;1.60;;
54835;SDS011;43486;43.574;1.476;2023-05-14T00:33:08;3.53;;;1.70;;
54835;SDS011;43486;43.574;1.476;2023-05-14T00:35:33;4.88;;;2.20;;
54835;SDS011;43486;43.574;1.476;2023-05-14T00:38:00;2.08;;;1.63;;
54835;SDS011;43486;43.574;1.476;2023-05-14T00:40:26;5.72;;;2.00;;
54835;SDS011;43486;43.574;1.476;2023-05-14T00:42:52;7.55;;;2.03;;
54835;SDS011;43486;43.574;1.476;2023-05-14T00:45:17;3.60;;;1.95;;
54835;SDS011;43486;43.574;1.476;2023-05-14T00:47:43;3.90;;;2.08;;
54835;SDS011;43486;43.574;1.476;2023-05-14T00:50:08;3.92;;;2.00;;
54835;SDS011;43486;43.574;1.476;2023-05-14T00:52:35;3.80;;;2.25;;
54835;SDS011;43486;43.574;1.476;2023-05-14T00:55:02;4.53;;;1.75;;
54835;SDS011;43486;43.574;1.476;2023-05-14T00:57:28;3.67;;;1.75;;
54835;SDS011;43486;43.574;1.476;2023-05-14T00:59:54;4.22;;;2.53;;
54835;SDS011;43486;43.574;1.476;2023-05-14T01:02:19;4.28;;;1.80;;
54835;SDS011;43486;43.574;1.476;2023-05-14T01:04:45;3.63;;;1.90;;
54835;SDS011;43486;43.574;1.476;2023-05-14T01:09:41;4.35;;;2.00;;
54835;SDS011;43486;43.574;1.476;2023-05-14T01:17:53;3.00;;;1.40;;
54835;SDS011;43486;43.574;1.476;2023-05-14T01:20:20;4.50;;;2.20;;
54835;SDS011;43486;43.574;1.476;2023-05-14T01:22:45;2.67;;;1.30;;
54835;SDS011;43486;43.574;1.476;2023-05-14T01:25:11;3.65;;;1.80;;
54835;SDS011;43486;43.574;1.476;2023-05-14T01:27:53;6.05;;;1.88;;
54835;SDS011;43486;43.574;1.476;2023-05-14T01:30:34;3.83;;;2.53;;
54835;SDS011;43486;43.574;1.476;2023-05-14T01:33:20;4.97;;;2.28;;
54835;SDS011;43486;43.574;1.476;2023-05-14T01:35:46;3.72;;;2.03;;
54835;SDS011;43486;43.574;1.476;2023-05-14T01:38:12;4.05;;;2.22;;
54835;SDS011;43486;43.574;1.476;2023-05-14T01:40:39;4.38;;;2.17;;
54835;SDS011;43486;43.574;1.476;2023-05-14T01:43:05;3.92;;;2.00;;
54835;SDS011;43486;43.574;1.476;2023-05-14T01:45:33;5.07;;;2.00;;
54835;SDS011;43486;43.574;1.476;2023-05-14T01:47:59;5.68;;;2.58;;
54835;SDS011;43486;43.574;1.476;2023-05-14T01:50:24;4.57;;;2.30;;
54835;SDS011;43486;43.574;1.476;2023-05-14T01:52:50;4.85;;;2.85;;
54835;SDS011;43486;43.574;1.476;2023-05-14T01:55:17;5.35;;;2.80;;
54835;SDS011;43486;43.574;1.476;2023-05-14T01:57:43;5.30;;;2.10;;
54835;SDS011;43486;43.574;1.476;2023-05-14T02:00:08;8.80;;;2.75;;
54835;SDS011;43486;43.574;1.476;2023-05-14T02:02:34;3.53;;;2.30;;
54835;SDS011;43486;43.574;1.476;2023-05-14T02:04:59;3.47;;;2.08;;
54835;SDS011;43486;43.574;1.476;2023-05-14T02:07:24;4.85;;;2.78;;
54835;SDS011;43486;43.574;1.476;2023-05-14T02:09:50;4.22;;;2.20;;
54835;SDS011;43486;43.574;1.476;2023-05-14T02:12:15;4.53;;;2.53;;
54835;SDS011;43486;43.574;1.476;2023-05-14T02:14:41;5.72;;;2.72;;
54835;SDS011;43486;43.574;1.476;2023-05-14T02:17:06;5.20;;;2.33;;
54835;SDS011;43486;43.574;1.476;2023-05-14T02:19:31;6.30;;;2.47;;
54835;SDS011;43486;43.574;1.476;2023-05-14T02:21:57;7.32;;;2.55;;
54835;SDS011;43486;43.574;1.476;2023-05-14T02:24:24;3.88;;;2.15;;
54835;SDS011;43486;43.574;1.476;2023-05-14T02:26:49;4.30;;;2.38;;
54835;SDS011;43486;43.574;1.476;2023-05-14T02:29:14;4.43;;;2.20;;
54835;SDS011;43486;43.574;1.476;2023-05-14T02:31:40;4.22;;;2.35;;
54835;SDS011;43486;43.574;1.476;2023-05-14T02:34:05;3.70;;;2.13;;
54835;SDS011;43486;43.574;1.476;2023-05-14T02:36:31;5.93;;;2.33;;
54835;SDS011;43486;43.574;1.476;2023-05-14T02:38:57;3.83;;;2.20;;
54835;SDS011;43486;43.574;1.476;2023-05-14T02:41:23;4.00;;;2.53;;
54835;SDS011;43486;43.574;1.476;2023-05-14T02:43:48;4.22;;;2.20;;
54835;SDS011;43486;43.574;1.476;2023-05-14T02:46:14;3.70;;;1.88;;
54835;SDS011;43486;43.574;1.476;2023-05-14T02:48:39;4.38;;;1.95;;
54835;SDS011;43486;43.574;1.476;2023-05-14T02:51:05;5.40;;;2.50;;
54835;SDS011;43486;43.574;1.476;2023-05-14T02:53:31;4.95;;;2.30;;
54835;SDS011;43486;43.574;1.476;2023-05-14T02:55:57;4.45;;;2.47;;
54835;SDS011;43486;43.574;1.476;2023-05-14T02:58:22;5.10;;;2.72;;
54835;SDS011;43486;43.574;1.476;2023-05-14T03:00:47;4.10;;;2.45;;
54835;SDS011;43486;43.574;1.476;2023-05-14T03:03:13;3.58;;;2.20;;
54835;SDS011;43486;43.574;1.476;2023-05-14T03:05:38;4.95;;;2.42;;
54835;SDS011;43486;43.574;1.476;2023-05-14T03:08:03;5.10;;;1.95;;
54835;SDS011;43486;43.574;1.476;2023-05-14T03:10:29;5.45;;;2.47;;
54835;SDS011;43486;43.574;1.476;2023-05-14T03:12:56;4.50;;;2.13;;
54835;SDS011;43486;43.574;1.476;2023-05-14T03:15:22;6.55;;;2.45;;
54835;SDS011;43486;43.574;1.476;2023-05-14T03:17:47;4.70;;;2.33;;
54835;SDS011;43486;43.574;1.476;2023-05-14T03:20:13;4.32;;;1.85;;
54835;SDS011;43486;43.574;1.476;2023-05-14T03:22:38;5.07;;;2.40;;
54835;SDS011;43486;43.574;1.476;2023-05-14T03:25:04;5.68;;;2.72;;
54835;SDS011;43486;43.574;1.476;2023-05-14T03:27:30;2.97;;;1.98;;
54835;SDS011;43486;43.574;1.476;2023-05-14T03:29:55;5.18;;;2.53;;
54835;SDS011;43486;43.574;1.476;2023-05-14T03:32:20;3.38;;;1.80;;
54835;SDS011;43486;43.574;1.476;2023-05-14T03:34:46;3.90;;;2.10;;
54835;SDS011;43486;43.574;1.476;2023-05-14T03:37:11;3.88;;;1.80;;
54835;SDS011;43486;43.574;1.476;2023-05-14T03:39:36;4.88;;;2.20;;
54835;SDS011;43486;43.574;1.476;2023-05-14T03:42:02;3.25;;;1.95;;
54835;SDS011;43486;43.574;1.476;2023-05-14T03:44:27;2.78;;;1.90;;
54835;SDS011;43486;43.574;1.476;2023-05-14T03:46:53;6.25;;;2.13;;
54835;SDS011;43486;43.574;1.476;2023-05-14T03:49:18;4.72;;;2.08;;
54835;SDS011;43486;43.574;1.476;2023-05-14T03:51:43;4.32;;;2.08;;
54835;SDS011;43486;43.574;1.476;2023-05-14T03:54:09;5.95;;;2.75;;
54835;SDS011;43486;43.574;1.476;2023-05-14T03:56:34;3.65;;;1.88;;
54835;SDS011;43486;43.574;1.476;2023-05-14T03:59:00;4.22;;;2.10;;
54835;SDS011;43486;43.574;1.476;2023-05-14T04:01:25;3.55;;;2.13;;
54835;SDS011;43486;43.574;1.476;2023-05-14T04:03:50;4.40;;;2.38;;
54835;SDS011;43486;43.574;1.476;2023-05-14T04:06:16;3.53;;;1.95;;
54835;SDS011;43486;43.574;1.476;2023-05-14T04:08:41;5.15;;;1.65;;
54835;SDS011;43486;43.574;1.476;2023-05-14T04:11:06;3.70;;;1.85;;
54835;SDS011;43486;43.574;1.476;2023-05-14T04:13:32;4.63;;;1.95;;
54835;SDS011;43486;43.574;1.476;2023-05-14T04:15:57;3.67;;;2.10;;
54835;SDS011;43486;43.574;1.476;2023-05-14T04:18:23;2.97;;;1.73;;
54835;SDS011;43486;43.574;1.476;2023-05-14T04:20:48;4.13;;;1.63;;
54835;SDS011;43486;43.574;1.476;2023-05-14T04:23:13;2.58;;;1.75;;
54835;SDS011;43486;43.574;1.476;2023-05-14T04:25:39;5.45;;;2.53;;
54835;SDS011;43486;43.574;1.476;2023-05-14T04:28:04;6.57;;;1.88;;
54835;SDS011;43486;43.574;1.476;2023-05-14T04:30:30;3.38;;;1.95;;
54835;SDS011;43486;43.574;1.476;2023-05-14T04:32:55;4.93;;;3.15;;
54835;SDS011;43486;43.574;1.476;2023-05-14T04:35:20;2.67;;;1.55;;
54835;SDS011;43486;43.574;1.476;2023-05-14T04:37:46;2.65;;;1.60;;
54835;SDS011;43486;43.574;1.476;2023-05-14T04:40:13;3.17;;;1.88;;
54835;SDS011;43486;43.574;1.476;2023-05-14T04:42:40;3.25;;;1.73;;
54835;SDS011;43486;43.574;1.476;2023-05-14T04:45:06;2.83;;;1.75;;
54835;SDS011;43486;43.574;1.476;2023-05-14T04:47:32;3.40;;;1.83;;
54835;SDS011;43486;43.574;1.476;2023-05-14T04:49:58;3.40;;;1.88;;
54835;SDS011;43486;43.574;1.476;2023-05-14T04:52:24;5.43;;;1.83;;
54835;SDS011;43486;43.574;1.476;2023-05-14T04:54:49;2.95;;;1.70;;
54835;SDS011;43486;43.574;1.476;2023-05-14T04:57:15;3.33;;;2.00;;
54835;SDS011;43486;43.574;1.476;2023-05-14T04:59:40;3.42;;;1.85;;
54835;SDS011;43486;43.574;1.476;2023-05-14T05:02:06;3.63;;;1.88;;
54835;SDS011;43486;43.574;1.476;2023-05-14T05:04:31;2.58;;;1.67;;
54835;SDS011;43486;43.574;1.476;2023-05-14T05:06:56;3.22;;;1.83;;
54835;SDS011;43486;43.574;1.476;2023-05-14T05:09:22;2.42;;;1.40;;
54835;SDS011;43486;43.574;1.476;2023-05-14T05:11:47;2.28;;;1.50;;
54835;SDS011;43486;43.574;1.476;2023-05-14T05:14:13;3.72;;;1.77;;
54835;SDS011;43486;43.574;1.476;2023-05-14T05:16:38;3.30;;;1.80;;
54835;SDS011;43486;43.574;1.476;2023-05-14T05:19:04;7.88;;;2.40;;
54835;SDS011;43486;43.574;1.476;2023-05-14T05:21:29;5.07;;;1.98;;
54835;SDS011;43486;43.574;1.476;2023-05-14T05:23:54;1.95;;;1.60;;
54835;SDS011;43486;43.574;1.476;2023-05-14T05:26:20;3.75;;;1.80;;
54835;SDS011;43486;43.574;1.476;2023-05-14T05:28:46;2.20;;;1.65;;
54835;SDS011;43486;43.574;1.476;2023-05-14T05:31:11;2.63;;;1.48;;
54835;SDS011;43486;43.574;1.476;2023-05-14T05:33:37;3.33;;;2.03;;
54835;SDS011;43486;43.574;1.476;2023-05-14T05:36:02;2.75;;;1.80;;
54835;SDS011;43486;43.574;1.476;2023-05-14T05:38:28;3.47;;;1.67;;
54835;SDS011;43486;43.574;1.476;2023-05-14T05:40:53;3.92;;;2.28;;
54835;SDS011;43486;43.574;1.476;2023-05-14T05:43:19;4.05;;;2.15;;
54835;SDS011;43486;43.574;1.476;2023-05-14T05:45:44;2.45;;;1.58;;
54835;SDS011;43486;43.574;1.476;2023-05-14T05:48:10;3.10;;;1.60;;
54835;SDS011;43486;43.574;1.476;2023-05-14T05:50:35;3.15;;;1.45;;
54835;SDS011;43486;43.574;1.476;2023-05-14T05:53:01;2.88;;;1.77;;
54835;SDS011;43486;43.574;1.476;2023-05-14T05:55:27;3.00;;;1.45;;
54835;SDS011;43486;43.574;1.476;2023-05-14T05:57:53;4.22;;;1.90;;
54835;SDS011;43486;43.574;1.476;2023-05-14T06:00:18;3.08;;;1.48;;
54835;SDS011;43486;43.574;1.476;2023-05-14T06:02:44;4.65;;;1.98;;
54835;SDS011;43486;43.574;1.476;2023-05-14T06:05:10;3.67;;;2.10;;
54835;SDS011;43486;43.574;1.476;2023-05-14T06:07:36;2.65;;;1.50;;
54835;SDS011;43486;43.574;1.476;2023-05-14T06:10:01;3.60;;;1.73;;
54835;SDS011;43486;43.574;1.476;2023-05-14T06:12:27;5.05;;;1.42;;
54835;SDS011;43486;43.574;1.476;2023-05-14T06:14:55;2.78;;;1.77;;
54835;SDS011;43486;43.574;1.476;2023-05-14T06:17:22;2.40;;;1.50;;
54835;SDS011;43486;43.574;1.476;2023-05-14T06:19:48;2.70;;;1.35;;
54835;SDS011;43486;43.574;1.476;2023-05-14T06:22:14;3.60;;;2.10;;
54835;SDS011;43486;43.574;1.476;2023-05-14T06:24:39;2.83;;;1.80;;
54835;SDS011;43486;43.574;1.476;2023-05-14T06:27:05;2.13;;;1.42;;
54835;SDS011;43486;43.574;1.476;2023-05-14T06:29:30;2.35;;;1.42;;
54835;SDS011;43486;43.574;1.476;2023-05-14T06:31:59;3.30;;;1.63;;
54835;SDS011;43486;43.574;1.476;2023-05-14T06:34:25;2.67;;;1.58;;
54835;SDS011;43486;43.574;1.476;2023-05-14T06:36:50;2.85;;;1.52;;
54835;SDS011;43486;43.574;1.476;2023-05-14T06:39:16;3.72;;;2.10;;
54835;SDS011;43486;43.574;1.476;2023-05-14T06:41:41;3.90;;;1.88;;
54835;SDS011;43486;43.574;1.476;2023-05-14T06:44:06;3.15;;;1.85;;
54835;SDS011;43486;43.574;1.476;2023-05-14T06:46:32;5.63;;;2.15;;
54835;SDS011;43486;43.574;1.476;2023-05-14T06:48:57;2.90;;;1.58;;
54835;SDS011;43486;43.574;1.476;2023-05-14T06:51:23;2.45;;;1.33;;
54835;SDS011;43486;43.574;1.476;2023-05-14T06:53:48;2.92;;;1.65;;
54835;SDS011;43486;43.574;1.476;2023-05-14T06:56:13;2.28;;;1.45;;
54835;SDS011;43486;43.574;1.476;2023-05-14T06:58:39;4.70;;;2.08;;
54835;SDS011;43486;43.574;1.476;2023-05-14T07:01:04;2.20;;;1.52;;
54835;SDS011;43486;43.574;1.476;2023-05-14T07:03:30;3.63;;;1.80;;
54835;SDS011;43486;43.574;1.476;2023-05-14T07:05:55;1.70;;;1.10;;
54835;SDS011;43486;43.574;1.476;2023-05-14T07:08:21;3.63;;;1.80;;
54835;SDS011;43486;43.574;1.476;2023-05-14T07:10:46;2.65;;;1.52;;
54835;SDS011;43486;43.574;1.476;2023-05-14T07:13:11;3.88;;;1.75;;
54835;SDS011;43486;43.574;1.476;2023-05-14T07:15:37;4.22;;;1.67;;
54835;SDS011;43486;43.574;1.476;2023-05-14T07:18:02;2.60;;;1.63;;
54835;SDS011;43486;43.574;1.476;2023-05-14T07:20:28;3.42;;;1.80;;
54835;SDS011;43486;43.574;1.476;2023-05-14T07:22:53;4.32;;;2.22;;
54835;SDS011;43486;43.574;1.476;2023-05-14T07:25:19;3.83;;;1.85;;
54835;SDS011;43486;43.574;1.476;2023-05-14T07:27:44;4.97;;;1.85;;
54835;SDS011;43486;43.574;1.476;2023-05-14T07:30:10;4.63;;;1.85;;
54835;SDS011;43486;43.574;1.476;2023-05-14T07:32:35;3.00;;;1.65;;
54835;SDS011;43486;43.574;1.476;2023-05-14T07:35:01;2.80;;;1.80;;
54835;SDS011;43486;43.574;1.476;2023-05-14T07:37:26;3.95;;;1.90;;
54835;SDS011;43486;43.574;1.476;2023-05-14T07:39:52;2.50;;;1.70;;
54835;SDS011;43486;43.574;1.476;2023-05-14T07:42:17;3.70;;;1.77;;
54835;SDS011;43486;43.574;1.476;2023-05-14T07:44:43;3.45;;;2.30;;
54835;SDS011;43486;43.574;1.476;2023-05-14T07:47:08;4.38;;;2.30;;
54835;SDS011;43486;43.574;1.476;2023-05-14T07:49:34;4.20;;;2.22;;
54835;SDS011;43486;43.574;1.476;2023-05-14T07:52:00;5.57;;;2.15;;
54835;SDS011;43486;43.574;1.476;2023-05-14T07:54:25;3.95;;;2.00;;
54835;SDS011;43486;43.574;1.476;2023-05-14T07:56:51;4.47;;;2.40;;
54835;SDS011;43486;43.574;1.476;2023-05-14T07:59:16;3.72;;;2.33;;
54835;SDS011;43486;43.574;1.476;2023-05-14T08:01:41;2.72;;;1.92;;
54835;SDS011;43486;43.574;1.476;2023-05-14T08:04:07;2.50;;;1.83;;
54835;SDS011;43486;43.574;1.476;2023-05-14T08:06:32;4.63;;;1.67;;
54835;SDS011;43486;43.574;1.476;2023-05-14T08:08:58;14.70;;;2.22;;
54835;SDS011;43486;43.574;1.476;2023-05-14T08:11:23;5.25;;;2.40;;
54835;SDS011;43486;43.574;1.476;2023-05-14T08:13:49;5.25;;;2.83;;
54835;SDS011;43486;43.574;1.476;2023-05-14T08:16:15;3.50;;;1.92;;
54835;SDS011;43486;43.574;1.476;2023-05-14T08:18:40;8.52;;;3.33;;
54835;SDS011;43486;43.574;1.476;2023-05-14T08:21:05;5.80;;;2.78;;
54835;SDS011;43486;43.574;1.476;2023-05-14T08:23:31;4.18;;;2.65;;
54835;SDS011;43486;43.574;1.476;2023-05-14T08:25:56;4.78;;;2.63;;
54835;SDS011;43486;43.574;1.476;2023-05-14T08:28:23;5.60;;;2.88;;
54835;SDS011;43486;43.574;1.476;2023-05-14T08:30:48;3.40;;;1.90;;
54835;SDS011;43486;43.574;1.476;2023-05-14T08:33:13;7.75;;;2.50;;
54835;SDS011;43486;43.574;1.476;2023-05-14T08:35:39;4.10;;;2.20;;
54835;SDS011;43486;43.574;1.476;2023-05-14T08:38:04;6.35;;;2.22;;
54835;SDS011;43486;43.574;1.476;2023-05-14T08:40:30;5.40;;;2.53;;
54835;SDS011;43486;43.574;1.476;2023-05-14T08:42:55;4.15;;;2.38;;
54835;SDS011;43486;43.574;1.476;2023-05-14T08:45:23;6.22;;;2.35;;
54835;SDS011;43486;43.574;1.476;2023-05-14T08:47:53;7.03;;;2.53;;
54835;SDS011;43486;43.574;1.476;2023-05-14T08:50:19;5.65;;;3.38;;
54835;SDS011;43486;43.574;1.476;2023-05-14T08:52:46;7.75;;;4.00;;
54835;SDS011;43486;43.574;1.476;2023-05-14T08:55:12;7.65;;;4.13;;
54835;SDS011;43486;43.574;1.476;2023-05-14T08:57:37;8.02;;;3.95;;
54835;SDS011;43486;43.574;1.476;2023-05-14T09:00:03;13.07;;;5.28;;
54835;SDS011;43486;43.574;1.476;2023-05-14T09:02:38;6.93;;;4.15;;
54835;SDS011;43486;43.574;1.476;2023-05-14T09:05:04;9.73;;;5.03;;
54835;SDS011;43486;43.574;1.476;2023-05-14T09:07:31;9.88;;;4.55;;
54835;SDS011;43486;43.574;1.476;2023-05-14T09:09:57;7.75;;;4.22;;
54835;SDS011;43486;43.574;1.476;2023-05-14T09:12:23;8.70;;;5.35;;
54835;SDS011;43486;43.574;1.476;2023-05-14T09:14:49;11.85;;;4.90;;
54835;SDS011;43486;43.574;1.476;2023-05-14T09:17:15;7.78;;;4.93;;
54835;SDS011;43486;43.574;1.476;2023-05-14T09:19:41;10.20;;;5.70;;
54835;SDS011;43486;43.574;1.476;2023-05-14T09:22:11;7.05;;;4.60;;
54835;SDS011;43486;43.574;1.476;2023-05-14T09:24:37;9.07;;;4.68;;
54835;SDS011;43486;43.574;1.476;2023-05-14T09:27:03;11.05;;;4.55;;
54835;SDS011;43486;43.574;1.476;2023-05-14T09:29:30;7.85;;;4.75;;
54835;SDS011;43486;43.574;1.476;2023-05-14T09:31:56;8.85;;;4.78;;
54835;SDS011;43486;43.574;1.476;2023-05-14T09:34:29;11.55;;;4.47;;
54835;SDS011;43486;43.574;1.476;2023-05-14T09:36:58;8.02;;;4.40;;
54835;SDS011;43486;43.574;1.476;2023-05-14T09:39:24;6.85;;;3.75;;
54835;SDS011;43486;43.574;1.476;2023-05-14T09:41:50;7.65;;;4.13;;
54835;SDS011;43486;43.574;1.476;2023-05-14T09:44:16;7.18;;;4.60;;
54835;SDS011;43486;43.574;1.476;2023-05-14T09:46:41;8.18;;;3.88;;
54835;SDS011;43486;43.574;1.476;2023-05-14T09:49:07;10.85;;;3.67;;
54835;SDS011;43486;43.574;1.476;2023-05-14T09:51:32;6.40;;;3.80;;
54835;SDS011;43486;43.574;1.476;2023-05-14T09:53:58;6.95;;;3.42;;
54835;SDS011;43486;43.574;1.476;2023-05-14T09:56:24;7.50;;;4.13;;
54835;SDS011;43486;43.574;1.476;2023-05-14T09:58:50;6.82;;;3.50;;
54835;SDS011;43486;43.574;1.476;2023-05-14T10:01:15;6.57;;;3.75;;
54835;SDS011;43486;43.574;1.476;2023-05-14T10:03:42;5.85;;;3.28;;
54835;SDS011;43486;43.574;1.476;2023-05-14T10:06:08;5.57;;;3.28;;
54835;SDS011;43486;43.574;1.476;2023-05-14T10:08:39;6.15;;;3.03;;
54835;SDS011;43486;43.574;1.476;2023-05-14T10:11:07;6.15;;;3.60;;
54835;SDS011;43486;43.574;1.476;2023-05-14T10:13:40;5.80;;;3.55;;
54835;SDS011;43486;43.574;1.476;2023-05-14T10:16:12;6.13;;;3.42;;
54835;SDS011;43486;43.574;1.476;2023-05-14T10:18:45;6.82;;;3.72;;
54835;SDS011;43486;43.574;1.476;2023-05-14T10:21:12;5.82;;;3.28;;
54835;SDS011;43486;43.574;1.476;2023-05-14T10:23:38;8.23;;;3.55;;
54835;SDS011;43486;43.574;1.476;2023-05-14T10:26:05;5.50;;;3.28;;
54835;SDS011;43486;43.574;1.476;2023-05-14T10:28:31;5.13;;;3.20;;
54835;SDS011;43486;43.574;1.476;2023-05-14T10:30:56;7.43;;;3.85;;
54835;SDS011;43486;43.574;1.476;2023-05-14T10:33:24;12.82;;;4.03;;
54835;SDS011;43486;43.574;1.476;2023-05-14T10:38:16;7.57;;;3.47;;
54835;SDS011;43486;43.574;1.476;2023-05-14T10:40:41;6.03;;;3.35;;
54835;SDS011;43486;43.574;1.476;2023-05-14T10:43:07;8.50;;;3.67;;
54835;SDS011;43486;43.574;1.476;2023-05-14T10:45:35;5.60;;;3.15;;
54835;SDS011;43486;43.574;1.476;2023-05-14T10:48:00;6.38;;;3.17;;
54835;SDS011;43486;43.574;1.476;2023-05-14T10:50:26;6.95;;;3.35;;
54835;SDS011;43486;43.574;1.476;2023-05-14T10:52:52;6.53;;;3.70;;
54835;SDS011;43486;43.574;1.476;2023-05-14T10:55:19;4.95;;;3.17;;
54835;SDS011;43486;43.574;1.476;2023-05-14T10:57:45;11.30;;;4.20;;
54835;SDS011;43486;43.574;1.476;2023-05-14T11:00:11;6.20;;;3.45;;
54835;SDS011;43486;43.574;1.476;2023-05-14T11:02:40;10.38;;;4.13;;
54835;SDS011;43486;43.574;1.476;2023-05-14T11:05:08;5.25;;;3.30;;
54835;SDS011;43486;43.574;1.476;2023-05-14T11:07:39;8.13;;;3.35;;
54835;SDS011;43486;43.574;1.476;2023-05-14T11:10:18;6.35;;;3.85;;
54835;SDS011;43486;43.574;1.476;2023-05-14T11:12:45;8.57;;;4.30;;
54835;SDS011;43486;43.574;1.476;2023-05-14T11:15:13;9.48;;;4.07;;
54835;SDS011;43486;43.574;1.476;2023-05-14T11:17:40;7.85;;;3.80;;
54835;SDS011;43486;43.574;1.476;2023-05-14T11:20:07;9.23;;;4.55;;
54835;SDS011;43486;43.574;1.476;2023-05-14T11:22:33;7.63;;;4.47;;
54835;SDS011;43486;43.574;1.476;2023-05-14T11:24:59;8.60;;;4.03;;
54835;SDS011;43486;43.574;1.476;2023-05-14T11:27:24;6.65;;;3.03;;
54835;SDS011;43486;43.574;1.476;2023-05-14T11:29:50;6.47;;;3.30;;
54835;SDS011;43486;43.574;1.476;2023-05-14T11:32:16;11.48;;;4.63;;
54835;SDS011;43486;43.574;1.476;2023-05-14T11:34:43;9.60;;;4.35;;
54835;SDS011;43486;43.574;1.476;2023-05-14T11:37:09;9.60;;;4.60;;
54835;SDS011;43486;43.574;1.476;2023-05-14T11:39:34;7.07;;;4.18;;
54835;SDS011;43486;43.574;1.476;2023-05-14T11:42:08;8.02;;;3.35;;
54835;SDS011;43486;43.574;1.476;2023-05-14T11:44:40;6.20;;;3.63;;
54835;SDS011;43486;43.574;1.476;2023-05-14T11:47:08;6.20;;;3.97;;
54835;SDS011;43486;43.574;1.476;2023-05-14T11:49:34;6.05;;;3.30;;
54835;SDS011;43486;43.574;1.476;2023-05-14T11:52:01;5.15;;;3.45;;
54835;SDS011;43486;43.574;1.476;2023-05-14T11:54:28;4.60;;;2.92;;
54835;SDS011;43486;43.574;1.476;2023-05-14T11:56:55;6.05;;;3.50;;
54835;SDS011;43486;43.574;1.476;2023-05-14T11:59:24;8.07;;;4.53;;
54835;SDS011;43486;43.574;1.476;2023-05-14T12:01:54;6.43;;;3.60;;
54835;SDS011;43486;43.574;1.476;2023-05-14T12:04:19;7.40;;;4.40;;
54835;SDS011;43486;43.574;1.476;2023-05-14T12:06:50;6.25;;;3.20;;
54835;SDS011;43486;43.574;1.476;2023-05-14T12:09:16;8.57;;;4.53;;
54835;SDS011;43486;43.574;1.476;2023-05-14T12:11:43;7.32;;;4.47;;
54835;SDS011;43486;43.574;1.476;2023-05-14T12:14:13;7.97;;;4.32;;
54835;SDS011;43486;43.574;1.476;2023-05-14T12:16:39;7.40;;;4.05;;
54835;SDS011;43486;43.574;1.476;2023-05-14T12:19:07;5.20;;;3.42;;
54835;SDS011;43486;43.574;1.476;2023-05-14T12:21:34;6.30;;;3.67;;
54835;SDS011;43486;43.574;1.476;2023-05-14T12:24:00;7.60;;;3.35;;
54835;SDS011;43486;43.574;1.476;2023-05-14T12:26:26;5.78;;;3.72;;
54835;SDS011;43486;43.574;1.476;2023-05-14T12:29:00;6.38;;;3.28;;
54835;SDS011;43486;43.574;1.476;2023-05-14T12:31:30;7.30;;;4.22;;
54835;SDS011;43486;43.574;1.476;2023-05-14T12:33:56;6.45;;;3.85;;
54835;SDS011;43486;43.574;1.476;2023-05-14T12:36:22;5.22;;;3.38;;
54835;SDS011;43486;43.574;1.476;2023-05-14T12:38:56;10.07;;;3.92;;
54835;SDS011;43486;43.574;1.476;2023-05-14T12:41:23;7.15;;;4.00;;
54835;SDS011;43486;43.574;1.476;2023-05-14T12:43:49;5.75;;;3.65;;
54835;SDS011;43486;43.574;1.476;2023-05-14T12:46:14;6.20;;;3.25;;
54835;SDS011;43486;43.574;1.476;2023-05-14T12:48:41;6.32;;;3.58;;
54835;SDS011;43486;43.574;1.476;2023-05-14T12:51:06;6.00;;;3.38;;
54835;SDS011;43486;43.574;1.476;2023-05-14T12:53:32;5.93;;;3.70;;
54835;SDS011;43486;43.574;1.476;2023-05-14T12:55:58;5.85;;;3.83;;
54835;SDS011;43486;43.574;1.476;2023-05-14T12:58:23;4.85;;;3.08;;
54835;SDS011;43486;43.574;1.476;2023-05-14T13:00:48;5.60;;;3.55;;
54835;SDS011;43486;43.574;1.476;2023-05-14T13:03:14;4.68;;;3.28;;
54835;SDS011;43486;43.574;1.476;2023-05-14T13:05:39;4.88;;;3.13;;
54835;SDS011;43486;43.574;1.476;2023-05-14T13:08:05;5.10;;;3.22;;
54835;SDS011;43486;43.574;1.476;2023-05-14T13:10:30;6.50;;;3.38;;
54835;SDS011;43486;43.574;1.476;2023-05-14T13:12:56;7.47;;;3.53;;
54835;SDS011;43486;43.574;1.476;2023-05-14T13:15:22;4.63;;;2.85;;
54835;SDS011;43486;43.574;1.476;2023-05-14T13:17:47;6.07;;;3.22;;
54835;SDS011;43486;43.574;1.476;2023-05-14T13:20:13;5.05;;;2.65;;
54835;SDS011;43486;43.574;1.476;2023-05-14T13:22:38;10.60;;;3.28;;
54835;SDS011;43486;43.574;1.476;2023-05-14T13:25:03;4.40;;;2.65;;
54835;SDS011;43486;43.574;1.476;2023-05-14T13:27:29;6.03;;;3.42;;
54835;SDS011;43486;43.574;1.476;2023-05-14T13:29:55;4.43;;;2.60;;
54835;SDS011;43486;43.574;1.476;2023-05-14T13:32:20;6.07;;;3.55;;
54835;SDS011;43486;43.574;1.476;2023-05-14T13:34:46;5.07;;;3.03;;
54835;SDS011;43486;43.574;1.476;2023-05-14T13:37:11;4.93;;;2.63;;
54835;SDS011;43486;43.574;1.476;2023-05-14T13:39:37;5.13;;;3.03;;
54835;SDS011;43486;43.574;1.476;2023-05-14T13:42:03;5.47;;;3.08;;
54835;SDS011;43486;43.574;1.476;2023-05-14T13:44:29;5.22;;;3.08;;
54835;SDS011;43486;43.574;1.476;2023-05-14T13:46:54;7.53;;;3.20;;
54835;SDS011;43486;43.574;1.476;2023-05-14T13:49:20;3.40;;;2.50;;
54835;SDS011;43486;43.574;1.476;2023-05-14T13:51:45;6.10;;;3.15;;
54835;SDS011;43486;43.574;1.476;2023-05-14T13:54:11;5.45;;;3.45;;
54835;SDS011;43486;43.574;1.476;2023-05-14T13:56:36;5.28;;;2.45;;
54835;SDS011;43486;43.574;1.476;2023-05-14T13:59:01;6.75;;;2.85;;
54835;SDS011;43486;43.574;1.476;2023-05-14T14:01:27;5.70;;;3.60;;
54835;SDS011;43486;43.574;1.476;2023-05-14T14:03:54;6.47;;;3.17;;
54835;SDS011;43486;43.574;1.476;2023-05-14T14:06:20;5.13;;;2.88;;
54835;SDS011;43486;43.574;1.476;2023-05-14T14:08:45;5.07;;;2.72;;
54835;SDS011;43486;43.574;1.476;2023-05-14T14:11:10;5.97;;;3.40;;
54835;SDS011;43486;43.574;1.476;2023-05-14T14:13:37;6.13;;;3.22;;
54835;SDS011;43486;43.574;1.476;2023-05-14T14:16:04;6.15;;;3.08;;
54835;SDS011;43486;43.574;1.476;2023-05-14T14:18:30;4.10;;;2.75;;
54835;SDS011;43486;43.574;1.476;2023-05-14T14:20:56;4.68;;;2.85;;
54835;SDS011;43486;43.574;1.476;2023-05-14T14:23:21;5.43;;;3.03;;
54835;SDS011;43486;43.574;1.476;2023-05-14T14:25:47;11.43;;;3.70;;
54835;SDS011;43486;43.574;1.476;2023-05-14T14:28:12;3.95;;;2.38;;
54835;SDS011;43486;43.574;1.476;2023-05-14T14:30:37;6.05;;;3.70;;
54835;SDS011;43486;43.574;1.476;2023-05-14T14:33:03;4.47;;;2.67;;
54835;SDS011;43486;43.574;1.476;2023-05-14T14:35:28;5.63;;;2.60;;
54835;SDS011;43486;43.574;1.476;2023-05-14T14:37:54;4.65;;;2.85;;
54835;SDS011;43486;43.574;1.476;2023-05-14T14:40:20;5.82;;;3.03;;
54835;SDS011;43486;43.574;1.476;2023-05-14T14:42:47;5.43;;;2.85;;
54835;SDS011;43486;43.574;1.476;2023-05-14T14:45:13;3.50;;;2.10;;
54835;SDS011;43486;43.574;1.476;2023-05-14T14:47:41;5.63;;;2.58;;
54835;SDS011;43486;43.574;1.476;2023-05-14T14:50:08;5.32;;;3.10;;
54835;SDS011;43486;43.574;1.476;2023-05-14T14:52:33;7.38;;;3.65;;